^^

..:: Storico WU ::..




Lo storico viene creato da WUnderground con i dati che la stazione Meteomincio invia al loro server. L' aggiornamento viene fatto ogni 5 minuti circa, tuttavia possono esserci intervalli pił ampi a causa di errori, interruzioni di servizio o problemi nell' invio tramite FTP.


Storico stazione MeteoMincio
Giorno Sommario per Dicembre 02, 2022 Unità:  Inglese    Metrico   Entrambi
Giorno Settimana Mese Anno
  Max: Min: Media:
Temperatura: 48.2 °F 39.2 °F 44.6 °F
Dew Point: 44.6 °F 37.4 °F 41.5 °F
Umidità: 96% 83% 89%
Velocità vento: 9.3mph 0mph 3.4mph
Raffica: 13mph - -
Direzione- - East
Pressione: 30.1 in 30.1 in -
Precipitazioni: 0.01 in    
 
 
Tabulato Dati per Dicembre 02, 2022
Ora Temperatura Dew Point Pressione Direzione Velocità vento Raffica Umidità Intensità pioggia (oraria) Info solare Situazione
00:04 39.2 °F 37.4 °F 30.1 in Calm     96% 0 in 0.00 W/m2 unknown
00:09 39.2 °F 37.4 °F 30.1 in Calm     96% 0 in 0.00 W/m2 unknown
00:14 39.2 °F 37.4 °F 30.1 in Calm     96% 0 in 0.00 W/m2 unknown
00:19 39.2 °F 37.4 °F 30.1 in Calm     96% 0 in 0.00 W/m2 unknown
00:24 39.2 °F 37.4 °F 30.1 in WNW 0.6 mph 1.2 mph 96% 0 in 0.00 W/m2 unknown
00:29 39.2 °F 37.4 °F 30.1 in WNW 1.2 mph 1.2 mph 96% 0 in 0.00 W/m2 unknown
00:34 39.2 °F 37.4 °F 30.1 in Calm   1.2 mph 96% 0 in 0.00 W/m2 unknown
00:39 39.2 °F 37.4 °F 30.1 in Calm     96% 0 in 0.00 W/m2 unknown
00:44 39.2 °F 39.2 °F 30.1 in Calm     96% 0 in 0.00 W/m2 unknown
00:49 39.2 °F 39.2 °F 30.1 in Calm     96% 0 in 0.00 W/m2 unknown
00:54 39.2 °F 39.2 °F 30.1 in Calm     96% 0 in 0.00 W/m2 unknown
00:59 39.2 °F 39.2 °F 30.1 in Calm     96% 0 in 0.00 W/m2 unknown
01:04 39.2 °F 39.2 °F 30.1 in Calm     96% 0 in 0.00 W/m2 unknown
01:09 39.2 °F 39.2 °F 30.1 in WSW 1.2 mph 3.1 mph 96% 0 in 0.00 W/m2 unknown
01:14 39.2 °F 39.2 °F 30.1 in West 1.9 mph 3.7 mph 96% 0 in 0.00 W/m2 unknown
01:19 39.2 °F 39.2 °F 30.1 in West 1.9 mph 3.7 mph 96% 0 in 0.00 W/m2 unknown
01:24 39.2 °F 39.2 °F 30.1 in West 1.2 mph 3.1 mph 96% 0 in 0.00 W/m2 unknown
01:29 39.2 °F 39.2 °F 30.1 in West 1.2 mph 2.5 mph 96% 0 in 0.00 W/m2 unknown
01:34 39.2 °F 39.2 °F 30.1 in West 1.9 mph 3.7 mph 96% 0 in 0.00 W/m2 unknown
01:39 39.2 °F 39.2 °F 30.1 in WSW 1.9 mph 3.1 mph 96% 0 in 0.00 W/m2 unknown
01:44 39.2 °F 39.2 °F 30.1 in WSW 1.9 mph 2.5 mph 96% 0 in 0.00 W/m2 unknown
01:49 39.2 °F 39.2 °F 30.1 in WSW 1.9 mph 3.7 mph 96% 0 in 0.00 W/m2 unknown
01:54 39.2 °F 39.2 °F 30.1 in WSW 1.9 mph 3.7 mph 96% 0 in 0.00 W/m2 unknown
01:59 39.2 °F 39.2 °F 30.1 in WSW 1.9 mph 3.7 mph 96% 0 in 0.00 W/m2 unknown
02:04 39.2 °F 39.2 °F 30.1 in SSW 1.9 mph 3.7 mph 96% 0 in 0.00 W/m2 unknown
02:09 39.2 °F 39.2 °F 30.1 in SSW 1.2 mph 3.7 mph 96% 0 in 0.00 W/m2 unknown
02:14 39.2 °F 39.2 °F 30.1 in SW 1.2 mph 3.1 mph 96% 0 in 0.00 W/m2 unknown
02:19 41 °F 39.2 °F 30.1 in SW 1.9 mph 3.1 mph 96% 0 in 0.00 W/m2 unknown
02:24 41 °F 39.2 °F 30.1 in SSW 1.9 mph 3.7 mph 95% 0 in 0.00 W/m2 unknown
02:29 41 °F 39.2 °F 30.1 in SSW 1.2 mph 2.5 mph 95% 0 in 0.00 W/m2 unknown
02:34 41 °F 39.2 °F 30.1 in Calm   1.9 mph 95% 0 in 0.00 W/m2 unknown
02:39 41 °F 39.2 °F 30.1 in East 0.6 mph 1.2 mph 95% 0 in 0.00 W/m2 unknown
02:44 41 °F 39.2 °F 30.1 in SE 0.6 mph 3.1 mph 95% 0 in 0.00 W/m2 unknown
02:49 41 °F 41 °F 30.1 in ESE 1.2 mph 3.7 mph 95% 0 in 0.00 W/m2 unknown
02:54 42.8 °F 41 °F 30.1 in ESE 3.1 mph 5 mph 95% 0 in 0.00 W/m2 unknown
02:59 42.8 °F 41 °F 30.1 in ESE 3.7 mph 5 mph 95% 0 in 0.00 W/m2 unknown
03:04 42.8 °F 41 °F 30.1 in East 4.3 mph 6.8 mph 94% 0 in 0.00 W/m2 unknown
03:09 42.8 °F 41 °F 30.1 in East 3.7 mph 6.8 mph 94% 0 in 0.00 W/m2 unknown
03:14 42.8 °F 41 °F 30.1 in ESE 3.7 mph 6.2 mph 93% 0 in 0.00 W/m2 unknown
03:19 44.6 °F 41 °F 30.1 in East 6.2 mph 10.6 mph 92% 0 in 0.00 W/m2 unknown
03:24 44.6 °F 41 °F 30.1 in East 6.2 mph 9.9 mph 91% 0 in 0.00 W/m2 unknown
03:29 44.6 °F 41 °F 30.1 in East 5.6 mph 9.3 mph 90% 0 in 0.00 W/m2 unknown
03:34 44.6 °F 41 °F 30.1 in East 5.6 mph 8.7 mph 90% 0 in 0.00 W/m2 unknown
03:39 44.6 °F 41 °F 30.1 in East 5.6 mph 8.1 mph 89% 0 in 0.00 W/m2 unknown
03:44 44.6 °F 41 °F 30.1 in East 5 mph 8.1 mph 89% 0 in 0.00 W/m2 unknown
03:49 44.6 °F 41 °F 30.1 in East 4.3 mph 8.1 mph 89% 0 in 0.00 W/m2 unknown
03:54 44.6 °F 41 °F 30.1 in East 4.3 mph 6.8 mph 89% 0 in 0.00 W/m2 unknown
03:59 44.6 °F 41 °F 30.1 in East 6.2 mph 9.3 mph 89% 0 in 0.00 W/m2 unknown
04:04 44.6 °F 41 °F 30.1 in East 6.2 mph 9.3 mph 89% 0 in 0.00 W/m2 unknown
04:09 44.6 °F 41 °F 30.1 in East 3.1 mph 8.1 mph 89% 0 in 0.00 W/m2 unknown
04:14 44.6 °F 41 °F 30.1 in East 6.2 mph 9.9 mph 88% 0 in 0.00 W/m2 unknown
04:19 44.6 °F 41 °F 30.1 in East 6.2 mph 10.6 mph 88% 0 in 0.00 W/m2 unknown
04:24 44.6 °F 41 °F 30.1 in ENE 4.3 mph 9.9 mph 88% 0 in 0.00 W/m2 unknown
04:29 44.6 °F 41 °F 30.1 in ENE 5.6 mph 9.3 mph 88% 0 in 0.00 W/m2 unknown
04:34 44.6 °F 41 °F 30.1 in East 7.5 mph 9.3 mph 88% 0 in 0.00 W/m2 unknown
04:39 44.6 °F 41 °F 30.1 in East 6.8 mph 9.3 mph 88% 0 in 0.00 W/m2 unknown
04:44 44.6 °F 41 °F 30.1 in East 6.2 mph 9.3 mph 88% 0 in 0.00 W/m2 unknown
04:49 44.6 °F 41 °F 30.1 in East 6.2 mph 9.3 mph 87% 0 in 0.00 W/m2 unknown
04:54 44.6 °F 41 °F 30.1 in East 6.2 mph 9.3 mph 87% 0 in 0.00 W/m2 unknown
04:59 44.6 °F 41 °F 30.1 in East 5.6 mph 8.7 mph 87% 0 in 0.00 W/m2 unknown
05:04 44.6 °F 41 °F 30.1 in East 6.2 mph 6.8 mph 87% 0 in 0.00 W/m2 unknown
05:09 44.6 °F 41 °F 30.1 in East 5.6 mph 6.8 mph 87% 0 in 0.00 W/m2 unknown
05:14 44.6 °F 41 °F 30.1 in East 6.2 mph 6.8 mph 87% 0 in 0.00 W/m2 unknown
05:19 44.6 °F 41 °F 30.1 in East 4.3 mph 6.8 mph 87% 0 in 0.00 W/m2 unknown
05:24 44.6 °F 41 °F 30.1 in East 5 mph 6.8 mph 87% 0 in 0.00 W/m2 unknown
05:29 44.6 °F 41 °F 30.1 in East 3.7 mph 6.8 mph 88% 0 in 0.00 W/m2 unknown
05:34 44.6 °F 41 °F 30.1 in East 3.1 mph 6.8 mph 88% 0 in 0.00 W/m2 unknown
05:39 44.6 °F 41 °F 30.1 in East 3.1 mph 6.2 mph 88% 0 in 0.00 W/m2 unknown
05:44 44.6 °F 41 °F 30.1 in East 4.3 mph 6.8 mph 88% 0 in 0.00 W/m2 unknown
05:49 44.6 °F 41 °F 30.1 in East 3.7 mph 6.8 mph 88% 0 in 0.00 W/m2 unknown
05:54 44.6 °F 41 °F 30.1 in East 3.7 mph 6.8 mph 88% 0 in 0.00 W/m2 unknown
05:59 44.6 °F 41 °F 30.1 in East 5 mph 6.8 mph 89% 0 in 0.00 W/m2 unknown
06:04 44.6 °F 41 °F 30.1 in East 5 mph 6.8 mph 89% 0 in 0.00 W/m2 unknown
06:09 44.6 °F 41 °F 30.1 in East 5 mph 6.8 mph 89% 0 in 0.00 W/m2 unknown
06:14 44.6 °F 41 °F 30.1 in East 5 mph 6.8 mph 89% 0 in 0.00 W/m2 unknown
06:19 44.6 °F 41 °F 30.1 in East 5.6 mph 8.1 mph 89% 0 in 0.00 W/m2 unknown
06:24 44.6 °F 41 °F 30.1 in East 6.2 mph 8.1 mph 89% 0 in 0.00 W/m2 unknown
06:29 44.6 °F 41 °F 30.1 in East 5.6 mph 8.1 mph 89% 0 in 0.00 W/m2 unknown
06:34 44.6 °F 41 °F 30.1 in East 5.6 mph 8.1 mph 89% 0 in 0.00 W/m2 unknown
06:39 44.6 °F 41 °F 30.1 in East 6.2 mph 8.1 mph 88% 0 in 0.00 W/m2 unknown
06:44 44.6 °F 41 °F 30.1 in East 5 mph 8.1 mph 89% 0 in 0.00 W/m2 unknown
06:49 44.6 °F 41 °F 30.1 in East 6.2 mph 9.3 mph 89% 0 in 0.00 W/m2 unknown
06:54 44.6 °F 41 °F 30.1 in East 5 mph 8.7 mph 89% 0 in 0.00 W/m2 unknown
06:59 44.6 °F 41 °F 30.1 in East 5 mph 9.3 mph 89% 0 in 0.00 W/m2 unknown
07:04 44.6 °F 41 °F 30.1 in East 5 mph 8.7 mph 89% 0 in 0.00 W/m2 unknown
07:09 44.6 °F 41 °F 30.1 in East 5 mph 6.8 mph 88% 0 in 0.00 W/m2 unknown
07:14 44.6 °F 41 °F 30.1 in East 2.5 mph 6.2 mph 88% 0 in 0.00 W/m2 unknown
07:19 44.6 °F 41 °F 30.1 in East 3.1 mph 5 mph 88% 0 in 0.00 W/m2 unknown
07:24 44.6 °F 41 °F 30.1 in ENE 3.7 mph 5 mph 88% 0 in 0.00 W/m2 unknown
07:29 44.6 °F 41 °F 30.1 in ENE 3.1 mph 6.8 mph 88% 0 in 0.00 W/m2 unknown
07:34 44.6 °F 41 °F 30.1 in ENE 3.1 mph 6.8 mph 88% 0 in 0.00 W/m2 unknown
07:39 44.6 °F 41 °F 30.1 in East 2.5 mph 6.8 mph 88% 0 in 0.00 W/m2 unknown
07:44 44.6 °F 41 °F 30.1 in ENE 1.9 mph 5 mph 88% 0 in 0.00 W/m2 unknown
07:49 44.6 °F 41 °F 30.1 in East 1.9 mph 5 mph 88% 0 in 0.00 W/m2 unknown
07:54 44.6 °F 41 °F 30.1 in East 1.9 mph 3.7 mph 88% 0 in 0.00 W/m2 unknown
07:59 44.6 °F 41 °F 30.1 in East 1.9 mph 3.7 mph 88% 0 in 0.00 W/m2 unknown
08:04 44.6 °F 41 °F 30.1 in Calm   3.1 mph 89% 0 in 0.00 W/m2 unknown
08:09 44.6 °F 41 °F 30.1 in Calm   1.2 mph 89% 0 in 0.00 W/m2 unknown
08:14 44.6 °F 41 °F 30.1 in ENE 0.6 mph 1.2 mph 90% 0 in 5.00 W/m2 unknown
08:19 42.8 °F 41 °F 30.1 in East 0.6 mph 2.5 mph 90% 0 in 7.00 W/m2 unknown
08:24 44.6 °F 41 °F 30.1 in ENE 1.9 mph 3.1 mph 90% 0 in 9.00 W/m2 unknown
08:29 44.6 °F 41 °F 30.1 in ENE 1.9 mph 3.7 mph 90% 0 in 11.00 W/m2 unknown
08:34 44.6 °F 41 °F 30.1 in ENE 1.2 mph 3.7 mph 90% 0 in 12.00 W/m2 unknown
08:39 44.6 °F 41 °F 30.1 in ENE 1.2 mph 3.1 mph 90% 0 in 14.00 W/m2 unknown
08:44 44.6 °F 41 °F 30.1 in NE 1.2 mph 2.5 mph 90% 0 in 16.00 W/m2 unknown
08:49 44.6 °F 41 °F 30.1 in NE 1.9 mph 3.7 mph 90% 0 in 16.00 W/m2 unknown
08:54 44.6 °F 41 °F 30.1 in NE 1.2 mph 3.1 mph 90% 0 in 14.00 W/m2 unknown
08:59 44.6 °F 41 °F 30.1 in NE 1.2 mph 2.5 mph 91% 0 in 18.00 W/m2 unknown
09:04 44.6 °F 41 °F 30.1 in NE 1.2 mph 1.9 mph 91% 0 in 25.00 W/m2 unknown
09:09 44.6 °F 41 °F 30.1 in NE 1.2 mph 1.2 mph 91% 0 in 30.00 W/m2 unknown
09:14 44.6 °F 41 °F 30.1 in Calm   1.2 mph 91% 0 in 32.00 W/m2 unknown
09:19 44.6 °F 41 °F 30.1 in Calm     91% 0 in 32.00 W/m2 unknown
09:24 44.6 °F 41 °F 30.1 in Calm     91% 0 in 35.00 W/m2 unknown
09:29 44.6 °F 41 °F 30.1 in Calm     91% 0 in 37.00 W/m2 unknown
09:34 44.6 °F 42.8 °F 30.1 in Calm     92% 0 in 42.00 W/m2 unknown
09:39 44.6 °F 42.8 °F 30.1 in Calm     92% 0 in 49.00 W/m2 unknown
09:44 44.6 °F 42.8 °F 30.1 in Calm     92% 0 in 53.00 W/m2 unknown
09:49 44.6 °F 42.8 °F 30.1 in Calm     92% 0 in 69.00 W/m2 unknown
09:54 44.6 °F 42.8 °F 30.1 in Calm     92% 0 in 70.00 W/m2 unknown
09:59 44.6 °F 42.8 °F 30.1 in Calm     92% 0 in 70.00 W/m2 unknown
10:04 44.6 °F 42.8 °F 30.1 in SE 2.5 mph 3.7 mph 92% 0 in 65.00 W/m2 unknown
10:09 44.6 °F 42.8 °F 30.1 in ESE 4.3 mph 6.2 mph 92% 0 in 58.00 W/m2 unknown
10:14 44.6 °F 42.8 °F 30.1 in ESE 3.7 mph 6.2 mph 92% 0 in 58.00 W/m2 unknown
10:19 44.6 °F 42.8 °F 30.1 in ESE 3.7 mph 5 mph 92% 0 in 54.00 W/m2 unknown
10:24 44.6 °F 42.8 °F 30.1 in ESE 3.7 mph 5 mph 92% 0 in 51.00 W/m2 unknown
10:29 44.6 °F 42.8 °F 30.1 in ESE 3.7 mph 6.2 mph 92% 0 in 47.00 W/m2 unknown
10:34 44.6 °F 42.8 °F 30.1 in ESE 2.5 mph 6.2 mph 92% 0 in 42.00 W/m2 unknown
10:39 44.6 °F 42.8 °F 30.1 in East 4.3 mph 6.2 mph 92% 0.01 in 39.00 W/m2 unknown
10:44 44.6 °F 42.8 °F 30.1 in East 3.7 mph 6.2 mph 92% 0.01 in 37.00 W/m2 unknown
10:49 44.6 °F 42.8 °F 30.1 in ENE 2.5 mph 6.2 mph 92% 0.01 in 44.00 W/m2 unknown
10:54 44.6 °F 42.8 °F 30.1 in ENE 3.7 mph 5 mph 92% 0.01 in 62.00 W/m2 unknown
10:59 44.6 °F 42.8 °F 30.1 in East 3.1 mph 5 mph 92% 0.01 in 63.00 W/m2 unknown
11:04 44.6 °F 42.8 °F 30.1 in East 2.5 mph 3.7 mph 92% 0.01 in 62.00 W/m2 unknown
11:09 44.6 °F 42.8 °F 30.1 in East 1.9 mph 3.7 mph 92% 0.01 in 53.00 W/m2 unknown
11:14 44.6 °F 42.8 °F 30.1 in East 1.9 mph 3.7 mph 92% 0.01 in 62.00 W/m2 unknown
11:19 44.6 °F 42.8 °F 30.1 in East 1.2 mph 3.1 mph 93% 0.01 in 88.00 W/m2 unknown
11:24 44.6 °F 42.8 °F 30.1 in East 1.9 mph 3.1 mph 93% 0.01 in 88.00 W/m2 unknown
11:29 44.6 °F 42.8 °F 30.1 in ESE 3.1 mph 3.7 mph 92% 0.01 in 76.00 W/m2 unknown
11:34 44.6 °F 42.8 °F 30.1 in East 3.1 mph 5 mph 92% 0.01 in 79.00 W/m2 unknown
11:39 44.6 °F 42.8 °F 30.1 in ENE 3.1 mph 5 mph 92% 0.01 in 93.00 W/m2 unknown
11:44 46.4 °F 42.8 °F 30.1 in NE 3.1 mph 4.3 mph 92% 0 in 104.00 W/m2 unknown
11:49 46.4 °F 42.8 °F 30.1 in ENE 2.5 mph 5 mph 92% 0 in 104.00 W/m2 unknown
11:54 46.4 °F 42.8 °F 30.1 in ENE 4.3 mph 6.8 mph 91% 0 in 93.00 W/m2 unknown
11:59 46.4 °F 42.8 °F 30.1 in ENE 4.3 mph 6.8 mph 91% 0 in 79.00 W/m2 unknown
12:04 46.4 °F 42.8 °F 30.1 in East 3.1 mph 6.8 mph 90% 0 in 67.00 W/m2 unknown
12:09 46.4 °F 42.8 °F 30.1 in East 3.1 mph 5 mph 90% 0 in 51.00 W/m2 unknown
12:14 46.4 °F 42.8 °F 30.1 in East 3.1 mph 5 mph 90% 0 in 58.00 W/m2 unknown
12:19 46.4 °F 42.8 °F 30.1 in ESE 3.1 mph 5 mph 90% 0 in 72.00 W/m2 unknown
12:24 46.4 °F 42.8 °F 30.1 in East 3.1 mph 5 mph 90% 0 in 102.00 W/m2 unknown
12:29 46.4 °F 42.8 °F 30.1 in ESE 2.5 mph 3.7 mph 90% 0 in 121.00 W/m2 unknown
12:34 46.4 °F 42.8 °F 30.1 in ESE 3.1 mph 3.7 mph 90% 0 in 121.00 W/m2 unknown
12:39 46.4 °F 42.8 °F 30.1 in ESE 3.7 mph 5 mph 90% 0 in 104.00 W/m2 unknown
12:44 46.4 °F 42.8 °F 30.1 in ESE 3.7 mph 6.2 mph 89% 0 in 84.00 W/m2 unknown
12:49 46.4 °F 42.8 °F 30.1 in East 3.1 mph 6.2 mph 89% 0 in 109.00 W/m2 unknown
12:54 46.4 °F 42.8 °F 30.1 in ESE 3.7 mph 5 mph 89% 0 in 146.00 W/m2 unknown
12:59 46.4 °F 42.8 °F 30.1 in East 4.3 mph 8.1 mph 88% 0 in 163.00 W/m2 unknown
13:04 46.4 °F 42.8 °F 30.1 in East 8.1 mph 11.8 mph 88% 0 in 163.00 W/m2 unknown
13:09 46.4 °F 42.8 °F 30.1 in ENE 8.7 mph 11.8 mph 85% 0 in 183.00 W/m2 unknown
13:14 48.2 °F 42.8 °F 30.1 in ENE 8.7 mph 11.8 mph 85% 0 in 188.00 W/m2 unknown
13:19 48.2 °F 42.8 °F 30.1 in ENE 9.3 mph 11.8 mph 85% 0 in 190.00 W/m2 unknown
13:24 48.2 °F 42.8 °F 30.1 in ENE 8.1 mph 11.8 mph 84% 0 in 204.00 W/m2 unknown
13:29 48.2 °F 42.8 °F 30.1 in ENE 6.2 mph 9.9 mph 84% 0 in 204.00 W/m2 unknown
13:34 48.2 °F 42.8 °F 30.1 in ENE 7.5 mph 11.2 mph 84% 0 in 197.00 W/m2 unknown
13:39 48.2 °F 42.8 °F 30.1 in ENE 8.7 mph 11.8 mph 84% 0 in 167.00 W/m2 unknown
13:44 48.2 °F 42.8 °F 30.1 in East 8.7 mph 13 mph 83% 0 in 114.00 W/m2 unknown
13:49 48.2 °F 42.8 °F 30.1 in East 8.1 mph 13 mph 84% 0 in 81.00 W/m2 unknown
13:54 48.2 °F 42.8 °F 30.1 in East 8.1 mph 13 mph 84% 0 in 62.00 W/m2 unknown
13:59 48.2 °F 42.8 °F 30.1 in East 8.1 mph 11.8 mph 84% 0 in 63.00 W/m2 unknown
14:04 48.2 °F 42.8 °F 30.1 in East 9.3 mph 11.8 mph 84% 0 in 72.00 W/m2 unknown
14:09 48.2 °F 42.8 °F 30.1 in East 8.1 mph 11.8 mph 83% 0 in 81.00 W/m2 unknown
14:14 48.2 °F 42.8 °F 30.1 in East 8.1 mph 11.8 mph 83% 0 in 104.00 W/m2 unknown
14:19 48.2 °F 44.6 °F 30.1 in East 7.5 mph 11.8 mph 87% 0 in 104.00 W/m2 unknown
14:24 48.2 °F 44.6 °F 30.1 in East 8.1 mph 10.6 mph 87% 0 in 97.00 W/m2 unknown
14:29 48.2 °F 42.8 °F 30.1 in ESE 7.5 mph 9.9 mph 85% 0 in 81.00 W/m2 unknown
14:34 48.2 °F 42.8 °F 30.1 in East 5 mph 8.7 mph 83% 0 in 76.00 W/m2 unknown
14:39 48.2 °F 42.8 °F 30.1 in East 6.2 mph 9.3 mph 83% 0 in 84.00 W/m2 unknown
14:44 46.4 °F 42.8 °F 30.1 in ENE 6.8 mph 8.7 mph 83% 0 in 84.00 W/m2 unknown
14:49 46.4 °F 42.8 °F 30.1 in East 6.8 mph 8.1 mph 83% 0 in 67.00 W/m2 unknown
14:54 46.4 °F 42.8 °F 30.1 in East 6.2 mph 8.1 mph 84% 0 in 62.00 W/m2 unknown
14:59 46.4 °F 42.8 °F 30.1 in East 5.6 mph 8.1 mph 84% 0 in 60.00 W/m2 unknown
15:04 46.4 °F 42.8 °F 30.1 in East 5 mph 8.1 mph 84% 0 in 51.00 W/m2 unknown
15:09 46.4 °F 42.8 °F 30.1 in East 5 mph 6.8 mph 84% 0 in 47.00 W/m2 unknown
15:14 46.4 °F 42.8 °F 30.1 in East 5 mph 6.8 mph 85% 0 in 51.00 W/m2 unknown
15:19 46.4 °F 42.8 °F 30.1 in East 5 mph 6.8 mph 85% 0 in 49.00 W/m2 unknown
15:24 46.4 °F 42.8 °F 30.1 in East 5 mph 6.8 mph 85% 0 in 44.00 W/m2 unknown
15:29 46.4 °F 42.8 °F 30.1 in East 5 mph 6.2 mph 85% 0 in 44.00 W/m2 unknown
15:34 46.4 °F 42.8 °F 30.1 in East 4.3 mph 6.2 mph 85% 0 in 62.00 W/m2 unknown
15:39 46.4 °F 42.8 °F 30.1 in East 4.3 mph 6.2 mph 85% 0 in 62.00 W/m2 unknown
15:44 46.4 °F 42.8 °F 30.1 in East 5.6 mph 6.8 mph 85% 0 in 40.00 W/m2 unknown
15:49 46.4 °F 42.8 °F 30.1 in East 5 mph 6.8 mph 85% 0 in 42.00 W/m2 unknown
15:54 46.4 °F 42.8 °F 30.1 in East 2.5 mph 6.2 mph 85% 0 in 39.00 W/m2 unknown
15:59 46.4 °F 42.8 °F 30.1 in East 3.7 mph 6.2 mph 85% 0 in 19.00 W/m2 unknown
16:04 46.4 °F 44.6 °F 30.1 in East 5.6 mph 6.8 mph 89% 0 in 9.00 W/m2 unknown
16:09 46.4 °F 42.8 °F 30.1 in ENE 5.6 mph 6.8 mph 87% 0 in 7.00 W/m2 unknown
16:14 46.4 °F 42.8 °F 30.1 in East 5 mph 6.8 mph 85% 0 in 7.00 W/m2 unknown
16:19 46.4 °F 42.8 °F 30.1 in East 6.2 mph 8.1 mph 85% 0 in 7.00 W/m2 unknown
16:24 46.4 °F 42.8 °F 30.1 in East 6.2 mph 8.1 mph 86% 0 in 7.00 W/m2 unknown
16:29 46.4 °F 42.8 °F 30.1 in ENE 5.6 mph 8.1 mph 86% 0 in 0.00 W/m2 unknown
16:34 46.4 °F 42.8 °F 30.1 in ENE 4.3 mph 8.1 mph 86% 0 in 0.00 W/m2 unknown
16:39 46.4 °F 42.8 °F 30.1 in ENE 3.7 mph 6.8 mph 86% 0 in 0.00 W/m2 unknown
16:44 46.4 °F 42.8 °F 30.1 in ENE 3.7 mph 5 mph 86% 0 in 0.00 W/m2 unknown
16:49 46.4 °F 42.8 °F 30.1 in ENE 3.1 mph 5 mph 86% 0 in 0.00 W/m2 unknown
16:54 46.4 °F 42.8 °F 30.1 in ENE 3.1 mph 5 mph 86% 0 in 0.00 W/m2 unknown
16:59 46.4 °F 42.8 °F 30.1 in ENE 3.1 mph 3.7 mph 86% 0 in 0.00 W/m2 unknown
17:04 46.4 °F 42.8 °F 30.1 in ENE 2.5 mph 3.7 mph 86% 0 in 0.00 W/m2 unknown
17:09 46.4 °F 42.8 °F 30.1 in ENE 2.5 mph 3.7 mph 87% 0 in 0.00 W/m2 unknown
17:14 46.4 °F 42.8 °F 30.1 in ENE 2.5 mph 5 mph 87% 0 in 0.00 W/m2 unknown
17:19 46.4 °F 42.8 °F 30.1 in ENE 1.2 mph 5 mph 87% 0 in 0.00 W/m2 unknown
17:24 46.4 °F 42.8 °F 30.1 in East 1.2 mph 2.5 mph 87% 0 in 0.00 W/m2 unknown
17:29 46.4 °F 42.8 °F 30.1 in East 1.2 mph 1.9 mph 87% 0 in 0.00 W/m2 unknown
17:34 44.6 °F 42.8 °F 30.1 in Calm   1.2 mph 88% 0 in 0.00 W/m2 unknown
17:39 44.6 °F 41 °F 30.1 in Calm     87% 0 in 0.00 W/m2 unknown
17:44 44.6 °F 42.8 °F 30.1 in Calm     92% 0 in 0.00 W/m2 unknown
17:49 44.6 °F 42.8 °F 30.1 in Calm     92% 0 in 0.00 W/m2 unknown
17:54 44.6 °F 42.8 °F 30.1 in Calm     88% 0 in 0.00 W/m2 unknown
17:59 44.6 °F 42.8 °F 30.1 in Calm     88% 0 in 0.00 W/m2 unknown
18:04 44.6 °F 42.8 °F 30.1 in Calm     88% 0 in 0.00 W/m2 unknown
18:09 44.6 °F 42.8 °F 30.1 in Calm     88% 0 in 0.00 W/m2 unknown
18:14 44.6 °F 42.8 °F 30.1 in Calm     89% 0 in 0.00 W/m2 unknown
18:19 44.6 °F 41 °F 30.1 in Calm     89% 0 in 0.00 W/m2 unknown
18:24 44.6 °F 42.8 °F 30.1 in Calm     90% 0 in 0.00 W/m2 unknown
18:29 44.6 °F 42.8 °F 30.1 in Calm     90% 0 in 0.00 W/m2 unknown
18:34 44.6 °F 42.8 °F 30.1 in Calm     90% 0 in 0.00 W/m2 unknown
18:39 44.6 °F 42.8 °F 30.1 in Calm     90% 0 in 0.00 W/m2 unknown
18:44 44.6 °F 42.8 °F 30.1 in Calm     90% 0 in 0.00 W/m2 unknown
18:49 44.6 °F 42.8 °F 30.1 in Calm     90% 0 in 0.00 W/m2 unknown
18:54 44.6 °F 42.8 °F 30.1 in Calm     90% 0 in 0.00 W/m2 unknown
18:59 44.6 °F 42.8 °F 30.1 in Calm     89% 0 in 0.00 W/m2 unknown
19:04 44.6 °F 42.8 °F 30.1 in SSE 0.6 mph 2.5 mph 89% 0 in 0.00 W/m2 unknown
19:09 44.6 °F 42.8 °F 30.1 in SSE 1.2 mph 3.7 mph 89% 0 in 0.00 W/m2 unknown
19:14 46.4 °F 42.8 °F 30.1 in SSE 3.1 mph 3.7 mph 88% 0 in 0.00 W/m2 unknown
19:19 46.4 °F 42.8 °F 30.1 in SSE 3.1 mph 3.7 mph 88% 0 in 0.00 W/m2 unknown
19:24 46.4 °F 42.8 °F 30.1 in SE 3.1 mph 5 mph 87% 0 in 0.00 W/m2 unknown
19:29 46.4 °F 42.8 °F 30.1 in ESE 4.3 mph 6.8 mph 87% 0 in 0.00 W/m2 unknown
19:34 46.4 °F 42.8 °F 30.1 in ESE 3.7 mph 6.8 mph 87% 0 in 0.00 W/m2 unknown
19:39 46.4 °F 42.8 °F 30.1 in SE 3.7 mph 5 mph 87% 0 in 0.00 W/m2 unknown
19:44 46.4 °F 42.8 °F 30.1 in ESE 3.7 mph 5 mph 86% 0 in 0.00 W/m2 unknown
19:49 46.4 °F 42.8 °F 30.1 in SE 3.7 mph 5 mph 86% 0 in 0.00 W/m2 unknown
19:54 46.4 °F 42.8 °F 30.1 in ESE 4.3 mph 8.1 mph 86% 0 in 0.00 W/m2 unknown
19:59 46.4 °F 42.8 °F 30.1 in ESE 4.3 mph 8.1 mph 86% 0 in 0.00 W/m2 unknown
20:04 46.4 °F 42.8 °F 30.1 in ESE 5 mph 8.1 mph 86% 0 in 0.00 W/m2 unknown
20:09 46.4 °F 42.8 °F 30.1 in ESE 5 mph 6.8 mph 86% 0 in 0.00 W/m2 unknown
20:14 46.4 °F 42.8 °F 30.1 in ESE 5 mph 6.8 mph 86% 0 in 0.00 W/m2 unknown
20:19 46.4 °F 42.8 °F 30.1 in ESE 5 mph 6.8 mph 86% 0 in 0.00 W/m2 unknown
20:24 46.4 °F 42.8 °F 30.1 in East 6.2 mph 8.1 mph 86% 0 in 0.00 W/m2 unknown
20:29 46.4 °F 42.8 °F 30.1 in ENE 5.6 mph 8.1 mph 86% 0 in 0.00 W/m2 unknown
20:34 46.4 °F 42.8 °F 30.1 in ENE 5.6 mph 8.1 mph 86% 0 in 0.00 W/m2 unknown
20:39 46.4 °F 42.8 °F 30.1 in ENE 3.7 mph 5.6 mph 86% 0 in 0.00 W/m2 unknown
20:44 46.4 °F 42.8 °F 30.1 in NE 3.1 mph 5 mph 86% 0 in 0.00 W/m2 unknown
20:49 46.4 °F 42.8 °F 30.1 in ENE 1.2 mph 3.7 mph 87% 0 in 0.00 W/m2 unknown
20:54 44.6 °F 41 °F 30.1 in ENE 2.5 mph 3.7 mph 87% 0 in 0.00 W/m2 unknown
20:59 44.6 °F 41 °F 30.1 in ENE 3.7 mph 6.2 mph 87% 0 in 0.00 W/m2 unknown
21:04 44.6 °F 42.8 °F 30.1 in ENE 5 mph 8.1 mph 88% 0 in 0.00 W/m2 unknown
21:09 44.6 °F 41 °F 30.1 in ENE 5 mph 8.1 mph 88% 0 in 0.00 W/m2 unknown
21:14 44.6 °F 41 °F 30.1 in East 5 mph 6.2 mph 88% 0 in 0.00 W/m2 unknown
21:19 44.6 °F 41 °F 30.1 in SE 2.5 mph 5 mph 88% 0 in 0.00 W/m2 unknown
21:24 44.6 °F 41 °F 30.1 in ESE 1.2 mph 3.1 mph 87% 0 in 0.00 W/m2 unknown
21:29 44.6 °F 41 °F 30.1 in East 1.9 mph 3.7 mph 87% 0 in 0.00 W/m2 unknown
21:34 44.6 °F 41 °F 30.1 in ENE 1.9 mph 3.7 mph 88% 0 in 0.00 W/m2 unknown
21:39 44.6 °F 41 °F 30.1 in ENE 3.1 mph 3.7 mph 88% 0 in 0.00 W/m2 unknown
21:44 44.6 °F 41 °F 30.1 in ENE 2.5 mph 3.7 mph 88% 0 in 0.00 W/m2 unknown
21:49 44.6 °F 41 °F 30.1 in ENE 2.5 mph 3.7 mph 88% 0 in 0.00 W/m2 unknown
21:54 44.6 °F 41 °F 30.1 in ENE 1.9 mph 3.7 mph 88% 0 in 0.00 W/m2 unknown
21:59 44.6 °F 41 °F 30.1 in ENE 2.5 mph 3.7 mph 88% 0 in 0.00 W/m2 unknown
22:04 44.6 °F 41 °F 30.1 in ENE 2.5 mph 3.7 mph 88% 0 in 0.00 W/m2 unknown
22:09 44.6 °F 41 °F 30.1 in NE 2.5 mph 3.7 mph 88% 0 in 0.00 W/m2 unknown
22:14 44.6 °F 41 °F 30.1 in ENE 2.5 mph 3.7 mph 88% 0 in 0.00 W/m2 unknown
22:19 44.6 °F 41 °F 30.1 in ENE 1.9 mph 3.7 mph 88% 0 in 0.00 W/m2 unknown
22:24 44.6 °F 41 °F 30.1 in ENE 2.5 mph 3.7 mph 88% 0 in 0.00 W/m2 unknown
22:29 44.6 °F 41 °F 30.1 in ENE 2.5 mph 3.7 mph 88% 0 in 0.00 W/m2 unknown
22:34 44.6 °F 41 °F 30.1 in ENE 2.5 mph 3.7 mph 88% 0 in 0.00 W/m2 unknown
22:39 44.6 °F 41 °F 30.1 in ENE 2.5 mph 3.7 mph 88% 0 in 0.00 W/m2 unknown
22:44 44.6 °F 41 °F 30.1 in ENE 2.5 mph 3.7 mph 88% 0 in 0.00 W/m2 unknown
22:49 44.6 °F 41 °F 30.1 in ENE 3.1 mph 5 mph 88% 0 in 0.00 W/m2 unknown
22:54 44.6 °F 41 °F 30.1 in ENE 3.1 mph 5 mph 88% 0 in 0.00 W/m2 unknown
22:59 44.6 °F 41 °F 30.1 in East 3.7 mph 6.2 mph 88% 0 in 0.00 W/m2 unknown
23:04 44.6 °F 41 °F 30.1 in East 5 mph 8.1 mph 87% 0 in 0.00 W/m2 unknown
23:09 44.6 °F 41 °F 30.1 in East 3.7 mph 8.1 mph 87% 0 in 0.00 W/m2 unknown
23:14 44.6 °F 41 °F 30.1 in East 4.3 mph 6.8 mph 87% 0 in 0.00 W/m2 unknown
23:19 44.6 °F 41 °F 30.1 in East 5 mph 6.8 mph 87% 0 in 0.00 W/m2 unknown
23:24 44.6 °F 41 °F 30.1 in ESE 5 mph 6.8 mph 87% 0 in 0.00 W/m2 unknown
23:29 44.6 °F 41 °F 30.1 in East 2.5 mph 6.8 mph 87% 0 in 0.00 W/m2 unknown
23:34 44.6 °F 41 °F 30.1 in East 2.5 mph 3.7 mph 87% 0 in 0.00 W/m2 unknown
23:39 44.6 °F 41 °F 30.1 in East 3.1 mph 5 mph 88% 0 in 0.00 W/m2 unknown
23:44 44.6 °F 41 °F 30.1 in East 5 mph 6.8 mph 88% 0 in 0.00 W/m2 unknown
23:49 44.6 °F 41 °F 30.1 in ENE 5.6 mph 8.1 mph 88% 0 in 0.00 W/m2 unknown
23:54 44.6 °F 41 °F 30.1 in ENE 6.8 mph 9.3 mph 88% 0 in 0.00 W/m2 unknown
23:59 44.6 °F 41 °F 30.1 in ENE 6.2 mph 8.7 mph 88% 0 in 0.00 W/m2 unknown
Stazione Meteorologica MeteoMincio Rivalta s/M (MN)
Con i complimenti di Weather Underground - 4 mb



METEO PILLOLE
Il più lungo periodo di temperature stabili
Garapan, Isola di Sarapan - Marianne settentrionali
Dal 1927 al 1935 la temperatura non è mai salita sopra 31°C e mai scesa sotto i 19,5°C.
Share

Non seguire questo link o sarai bannato dal sito!